Time,TemperatureF,DewpointF,PressureIn,WindDirection,WindDirectionDegrees,WindSpeedMPH,WindSpeedGustMPH,Humidity,HourlyPrecipIn,Conditions,Clouds,dailyrainin,SolarRadiationWatts/m^2,SoftwareType,DateUTC
2013-07-10 00:01:00,64.0,63.0,-100.00,NW,318,11.0,23.0,95,0.00,,,0.52,0.000000,,2013-07-10 05:01:00,
2013-07-10 00:22:00,64.0,63.0,-100.00,NW,318,11.0,23.0,95,0.00,,,0.52,0.000000,,2013-07-10 05:22:00,
2013-07-10 00:32:00,64.0,63.0,-100.00,NW,318,11.0,23.0,95,0.00,,,0.52,0.000000,,2013-07-10 05:32:00,
2013-07-10 00:42:00,64.0,63.0,-100.00,NW,318,11.0,23.0,95,0.00,,,0.52,0.000000,,2013-07-10 05:42:00,
2013-07-10 00:53:00,64.0,63.0,-100.00,NW,318,11.0,23.0,95,0.00,,,0.52,0.000000,,2013-07-10 05:53:00,
2013-07-10 01:01:00,61.0,59.0,-100.00,NW,314,7.0,18.0,92,0.00,,,0.52,0.000000,,2013-07-10 06:01:00,
2013-07-10 01:22:00,61.0,59.0,-100.00,NW,314,7.0,18.0,92,0.00,,,0.52,0.000000,,2013-07-10 06:22:00,
2013-07-10 01:33:00,61.0,59.0,-100.00,NW,314,7.0,18.0,92,0.00,,,0.52,0.000000,,2013-07-10 06:33:00,
2013-07-10 01:42:00,61.0,59.0,-100.00,NW,314,7.0,18.0,92,0.00,,,0.52,0.000000,,2013-07-10 06:42:00,
2013-07-10 01:52:00,61.0,59.0,-100.00,NW,314,7.0,18.0,92,0.00,,,0.52,0.000000,,2013-07-10 06:52:00,
2013-07-10 02:01:00,60.0,59.0,-100.00,WNW,295,5.0,11.0,95,0.00,,,0.52,0.000000,,2013-07-10 07:01:00,
2013-07-10 02:22:00,60.0,59.0,-100.00,WNW,295,5.0,11.0,95,0.00,,,0.52,0.000000,,2013-07-10 07:22:00,
2013-07-10 02:33:00,60.0,59.0,-100.00,WNW,295,5.0,11.0,95,0.00,,,0.52,0.000000,,2013-07-10 07:33:00,
2013-07-10 02:43:00,60.0,59.0,-100.00,WNW,295,5.0,11.0,95,0.00,,,0.52,0.000000,,2013-07-10 07:43:00,
2013-07-10 02:53:00,60.0,59.0,-100.00,WNW,295,5.0,11.0,95,0.00,,,0.52,0.000000,,2013-07-10 07:53:00,
2013-07-10 03:01:00,59.0,57.0,-100.00,WNW,301,5.0,12.0,93,0.00,,,0.52,0.000000,,2013-07-10 08:01:00,
2013-07-10 03:23:00,59.0,57.0,-100.00,WNW,301,5.0,12.0,93,0.00,,,0.52,0.000000,,2013-07-10 08:23:00,
2013-07-10 03:33:00,59.0,57.0,-100.00,WNW,301,5.0,12.0,93,0.00,,,0.52,0.000000,,2013-07-10 08:33:00,
2013-07-10 03:42:00,59.0,57.0,-100.00,WNW,301,5.0,12.0,93,0.00,,,0.52,0.000000,,2013-07-10 08:42:00,
2013-07-10 03:53:00,59.0,57.0,-100.00,WNW,301,5.0,12.0,93,0.00,,,0.52,0.000000,,2013-07-10 08:53:00,
2013-07-10 04:01:00,58.0,56.0,-100.00,WNW,300,5.0,10.0,94,0.00,,,0.52,0.000000,,2013-07-10 09:01:00,
2013-07-10 04:22:00,58.0,56.0,-100.00,WNW,300,5.0,10.0,94,0.00,,,0.52,0.000000,,2013-07-10 09:22:00,
2013-07-10 04:33:00,58.0,56.0,-100.00,WNW,300,5.0,10.0,94,0.00,,,0.52,0.000000,,2013-07-10 09:33:00,
2013-07-10 04:43:00,58.0,56.0,-100.00,WNW,300,5.0,10.0,94,0.00,,,0.52,0.000000,,2013-07-10 09:43:00,
2013-07-10 04:53:00,58.0,56.0,-100.00,WNW,300,5.0,10.0,94,0.00,,,0.52,0.000000,,2013-07-10 09:53:00,
2013-07-10 05:01:00,58.0,56.0,-100.00,WNW,296,8.0,13.0,93,0.00,,,0.52,0.000000,,2013-07-10 10:01:00,
2013-07-10 05:23:00,58.0,56.0,-100.00,WNW,296,8.0,13.0,93,0.00,,,0.52,0.000000,,2013-07-10 10:23:00,
2013-07-10 05:32:00,58.0,56.0,-100.00,WNW,296,8.0,13.0,93,0.00,,,0.52,0.000000,,2013-07-10 10:32:00,
2013-07-10 05:51:00,-999.0,-99.9,-100.00,WNW,296,8.0,13.0,-999,-99.99,,,-99.99,0.000000,,2013-07-10 10:51:00,
2013-07-10 06:00:00,-999.0,-99.9,-100.00,WNW,296,8.0,13.0,-999,-99.99,,,-99.99,0.000000,,2013-07-10 11:00:00,
2013-07-10 09:01:00,61.0,56.0,-100.00,NW,307,6.0,12.0,83,-99.99,,,0.52,215.000000,,2013-07-10 14:01:00,
2013-07-10 09:22:00,61.0,56.0,-100.00,NW,307,6.0,12.0,83,-99.99,,,0.52,215.000000,,2013-07-10 14:22:00,
2013-07-10 09:33:00,61.0,56.0,-100.00,NW,307,6.0,12.0,83,-99.99,,,0.52,215.000000,,2013-07-10 14:33:00,
2013-07-10 09:43:00,61.0,56.0,-100.00,NW,307,6.0,12.0,83,-99.99,,,0.52,215.000000,,2013-07-10 14:43:00,
2013-07-10 09:53:00,61.0,56.0,-100.00,NW,307,6.0,12.0,83,-99.99,,,0.52,215.000000,,2013-07-10 14:53:00,
2013-07-10 10:01:00,62.0,55.0,-100.00,NW,309,7.0,16.0,78,0.00,,,0.52,367.000000,,2013-07-10 15:01:00,
2013-07-10 10:34:00,62.0,55.0,-100.00,NW,309,7.0,16.0,78,0.00,,,0.52,367.000000,,2013-07-10 15:34:00,
2013-07-10 10:43:00,62.0,55.0,-100.00,NW,309,7.0,16.0,78,0.00,,,0.52,367.000000,,2013-07-10 15:43:00,
2013-07-10 10:52:00,62.0,55.0,-100.00,NW,309,7.0,16.0,78,0.00,,,0.52,367.000000,,2013-07-10 15:52:00,
2013-07-10 11:01:00,64.0,55.0,-100.00,NW,314,8.0,16.0,72,0.00,,,0.52,426.000000,,2013-07-10 16:01:00,
2013-07-10 11:33:00,64.0,55.0,-100.00,NW,314,8.0,16.0,72,0.00,,,0.52,426.000000,,2013-07-10 16:33:00,
2013-07-10 11:44:00,64.0,55.0,-100.00,NW,314,8.0,16.0,72,0.00,,,0.52,426.000000,,2013-07-10 16:44:00,
2013-07-10 11:53:00,64.0,55.0,-100.00,NW,314,8.0,16.0,72,0.00,,,0.52,426.000000,,2013-07-10 16:53:00,
2013-07-10 12:01:00,65.0,55.0,-100.00,NW,311,9.0,17.0,69,0.00,,,0.52,518.000000,,2013-07-10 17:01:00,
2013-07-10 12:32:00,65.0,55.0,-100.00,NW,311,9.0,17.0,69,0.00,,,0.52,518.000000,,2013-07-10 17:32:00,
2013-07-10 12:43:00,65.0,55.0,-100.00,NW,311,9.0,17.0,69,0.00,,,0.52,518.000000,,2013-07-10 17:43:00,
2013-07-10 12:53:00,65.0,55.0,-100.00,NW,311,9.0,17.0,69,0.00,,,0.52,518.000000,,2013-07-10 17:53:00,
2013-07-10 13:01:00,67.0,53.0,-100.00,NW,325,10.0,19.0,60,0.00,,,0.52,818.000000,,2013-07-10 18:01:00,
2013-07-10 13:22:00,67.0,53.0,-100.00,NW,325,10.0,19.0,60,0.00,,,0.52,818.000000,,2013-07-10 18:22:00,
2013-07-10 13:32:00,67.0,53.0,-100.00,NW,325,10.0,19.0,60,0.00,,,0.52,818.000000,,2013-07-10 18:32:00,
2013-07-10 13:44:00,67.0,53.0,-100.00,NW,325,10.0,19.0,60,0.00,,,0.52,818.000000,,2013-07-10 18:44:00,
2013-07-10 13:53:00,67.0,53.0,-100.00,NW,325,10.0,19.0,60,0.00,,,0.52,818.000000,,2013-07-10 18:53:00,
2013-07-10 14:01:00,69.0,52.0,-100.00,NNW,328,9.0,19.0,54,0.00,,,0.34,808.000000,,2013-07-10 19:01:00,
2013-07-10 14:22:00,69.0,52.0,-100.00,NNW,328,9.0,19.0,54,0.00,,,0.34,808.000000,,2013-07-10 19:22:00,
2013-07-10 14:32:00,69.0,52.0,-100.00,NNW,328,9.0,19.0,54,0.00,,,0.34,808.000000,,2013-07-10 19:32:00,
2013-07-10 14:42:00,69.0,52.0,-100.00,NNW,328,9.0,19.0,54,0.00,,,0.34,808.000000,,2013-07-10 19:42:00,
2013-07-10 14:53:00,69.0,52.0,-100.00,NNW,328,9.0,19.0,54,0.00,,,0.34,808.000000,,2013-07-10 19:53:00,
2013-07-10 15:01:00,70.0,52.0,-100.00,NNW,328,8.0,18.0,52,0.00,,,0.24,823.000000,,2013-07-10 20:01:00,
2013-07-10 15:32:00,70.0,52.0,-100.00,NNW,328,8.0,18.0,52,0.00,,,0.24,823.000000,,2013-07-10 20:32:00,
2013-07-10 15:43:00,70.0,52.0,-100.00,NNW,328,8.0,18.0,52,0.00,,,0.24,823.000000,,2013-07-10 20:43:00,
2013-07-10 15:52:00,70.0,52.0,-100.00,NNW,328,8.0,18.0,52,0.00,,,0.24,823.000000,,2013-07-10 20:52:00,
2013-07-10 16:01:00,71.0,52.0,-100.00,NW,315,7.0,20.0,51,0.00,,,0.24,758.000000,,2013-07-10 21:01:00,
2013-07-10 16:22:00,71.0,52.0,-100.00,NW,315,7.0,20.0,51,0.00,,,0.24,758.000000,,2013-07-10 21:22:00,
2013-07-10 16:32:00,71.0,52.0,-100.00,NW,315,7.0,20.0,51,0.00,,,0.24,758.000000,,2013-07-10 21:32:00,
2013-07-10 16:42:00,71.0,52.0,-100.00,NW,315,7.0,20.0,51,0.00,,,0.24,758.000000,,2013-07-10 21:42:00,
2013-07-10 16:52:00,71.0,52.0,-100.00,NW,315,7.0,20.0,51,0.00,,,0.24,758.000000,,2013-07-10 21:52:00,
2013-07-10 18:01:00,71.0,51.0,-100.00,NW,317,8.0,17.0,50,-99.99,,,0.00,540.000000,,2013-07-10 23:01:00,
2013-07-10 18:32:00,71.0,51.0,-100.00,NW,317,8.0,17.0,50,-99.99,,,0.00,540.000000,,2013-07-10 23:32:00,
2013-07-10 18:43:00,71.0,51.0,-100.00,NW,317,8.0,17.0,50,-99.99,,,0.00,540.000000,,2013-07-10 23:43:00,
2013-07-10 18:52:00,71.0,51.0,-100.00,NW,317,8.0,17.0,50,-99.99,,,0.00,540.000000,,2013-07-10 23:52:00,
2013-07-10 19:01:00,71.0,52.0,-100.00,NW,317,5.0,12.0,52,0.00,,,-99.99,365.000000,,2013-07-11 00:01:00,
2013-07-10 19:32:00,71.0,52.0,-100.00,NW,317,5.0,12.0,52,0.00,,,-99.99,365.000000,,2013-07-11 00:32:00,
2013-07-10 19:43:00,71.0,52.0,-100.00,NW,317,5.0,12.0,52,0.00,,,-99.99,365.000000,,2013-07-11 00:43:00,
2013-07-10 19:52:00,71.0,52.0,-100.00,NW,317,5.0,12.0,52,0.00,,,-99.99,365.000000,,2013-07-11 00:52:00,
2013-07-10 20:01:00,66.0,57.0,-100.00,WNW,283,1.0,8.0,73,0.00,,,0.00,154.000000,,2013-07-11 01:01:00,
2013-07-10 20:22:00,66.0,57.0,-100.00,WNW,283,1.0,8.0,73,0.00,,,0.00,154.000000,,2013-07-11 01:22:00,
2013-07-10 20:32:00,66.0,57.0,-100.00,WNW,283,1.0,8.0,73,0.00,,,0.00,154.000000,,2013-07-11 01:32:00,
2013-07-10 20:43:00,66.0,57.0,-100.00,WNW,283,1.0,8.0,73,0.00,,,0.00,154.000000,,2013-07-11 01:43:00,
2013-07-10 20:52:00,66.0,57.0,-100.00,WNW,283,1.0,8.0,73,0.00,,,0.00,154.000000,,2013-07-11 01:52:00,
2013-07-10 21:01:00,58.0,56.0,-100.00,West,262,0.0,2.0,94,0.00,,,0.00,19.000000,,2013-07-11 02:01:00,
2013-07-10 21:32:00,58.0,56.0,-100.00,West,262,0.0,2.0,94,0.00,,,0.00,19.000000,,2013-07-11 02:32:00,
2013-07-10 21:44:00,58.0,56.0,-100.00,West,262,0.0,2.0,94,0.00,,,0.00,19.000000,,2013-07-11 02:44:00,
2013-07-10 21:53:00,58.0,56.0,-100.00,West,262,0.0,2.0,94,0.00,,,0.00,19.000000,,2013-07-11 02:53:00,
2013-07-10 22:01:00,54.0,53.0,-100.00,West,259,0.0,0.0,98,0.00,,,0.00,0.000000,,2013-07-11 03:01:00,
2013-07-10 22:22:00,54.0,53.0,-100.00,West,259,0.0,0.0,98,0.00,,,0.00,0.000000,,2013-07-11 03:22:00,
2013-07-10 22:33:00,54.0,53.0,-100.00,West,259,0.0,0.0,98,0.00,,,0.00,0.000000,,2013-07-11 03:33:00,
2013-07-10 22:42:00,54.0,53.0,-100.00,West,259,0.0,0.0,98,0.00,,,0.00,0.000000,,2013-07-11 03:42:00,
2013-07-10 22:53:00,54.0,53.0,-100.00,West,259,0.0,0.0,98,0.00,,,0.00,0.000000,,2013-07-11 03:53:00,
2013-07-10 23:01:00,52.0,52.0,-100.00,West,273,1.0,2.0,99,0.00,,,0.00,0.000000,,2013-07-11 04:01:00,
2013-07-10 23:32:00,52.0,52.0,-100.00,West,273,1.0,2.0,99,0.00,,,0.00,0.000000,,2013-07-11 04:32:00,
2013-07-10 23:43:00,52.0,52.0,-100.00,West,273,1.0,2.0,99,0.00,,,0.00,0.000000,,2013-07-11 04:43:00,
2013-07-10 23:53:00,52.0,52.0,-100.00,West,273,1.0,2.0,99,0.00,,,0.00,0.000000,,2013-07-11 04:53:00,